Time;durP1;ratioP1;P1;durP2;ratioP2;P2;SDS_P1;SDS_P2;PMS_P1;PMS_P2;Temp;Humidity;BMP_temperature;BMP_pressure;BME280_temperature;BME280_humidity;BME280_pressure;Samples;Min_cycle;Max_cycle;Signal;HPM_P1;HPM_P2
2023/04/03 00:00:40;;;;;;;4.93;3.08;;;;;;;8.44;66.74;98793.78;6104195;23;20009;-86
2023/04/03 00:03:05;;;;;;;6.53;3.35;;;;;;;8.34;67.04;98791.09;6128021;23;20085;-86
2023/04/03 00:05:31;;;;;;;6.68;3.15;;;;;;;8.35;67.38;98784.66;6079269;23;20006;-86
2023/04/03 00:07:56;;;;;;;4.68;3.10;;;;;;;8.37;66.73;98767.22;6104711;23;20060;-86
2023/04/03 00:10:22;;;;;;;7.40;3.10;;;;;;;8.32;66.69;98777.13;6103333;23;20076;-86
2023/04/03 00:12:47;;;;;;;4.75;2.75;;;;;;;8.17;67.31;98773.38;6102879;23;19998;-86
2023/04/03 00:15:13;;;;;;;4.18;2.40;;;;;;;8.21;66.86;98765.59;6104021;23;20078;-86
2023/04/03 00:17:38;;;;;;;3.17;2.50;;;;;;;8.34;66.53;98764.25;6101830;23;20004;-86
2023/04/03 00:20:04;;;;;;;6.93;2.33;;;;;;;8.33;67.00;98760.78;6102507;23;20020;-86
2023/04/03 00:22:30;;;;;;;4.88;2.65;;;;;;;8.30;66.53;98764.81;6103910;23;20090;-86
2023/04/03 00:24:55;;;;;;;3.63;2.40;;;;;;;8.27;66.84;98756.47;6103201;23;19998;-86
2023/04/03 00:27:21;;;;;;;4.07;2.35;;;;;;;8.19;67.02;98760.50;6102894;23;20062;-86
2023/04/03 00:29:46;;;;;;;6.10;2.33;;;;;;;8.29;66.63;98754.34;6078428;23;20002;-86
2023/04/03 00:32:12;;;;;;;4.03;2.80;;;;;;;8.28;66.84;98761.59;6102932;23;20028;-86
2023/04/03 00:34:37;;;;;;;4.15;2.85;;;;;;;8.27;67.10;98768.00;6079165;23;20029;-86
2023/04/03 00:37:03;;;;;;;3.90;2.75;;;;;;;8.32;66.76;98759.16;6079221;23;20006;-86
2023/04/03 00:39:28;;;;;;;3.90;2.50;;;;;;;8.35;66.85;98758.63;6102883;23;20002;-86
2023/04/03 00:41:54;;;;;;;8.32;2.47;;;;;;;8.25;67.22;98755.94;6103298;23;20416;-86
2023/04/03 00:44:39;;;;;;;3.22;1.95;;;;;;;8.20;67.68;98754.06;6103689;23;20009;-86
2023/04/03 00:47:06;;;;;;;3.30;2.25;;;;;;;8.13;67.43;98752.72;6126244;23;20009;-86
2023/04/03 00:49:32;;;;;;;4.32;2.28;;;;;;;7.97;67.92;98744.69;6103222;23;20065;-87
2023/04/03 00:51:57;;;;;;;3.42;2.42;;;;;;;8.14;67.42;98762.41;6105258;23;19994;-87
2023/04/03 00:54:22;;;;;;;3.78;2.47;;;;;;;7.84;68.00;98745.19;6103957;23;19997;-86
2023/04/03 00:56:49;;;;;;;3.75;2.42;;;;;;;7.85;67.85;98757.53;6106229;23;20009;-86
2023/04/03 00:59:22;;;;;;;3.55;2.50;;;;;;;7.71;69.09;98751.88;6082490;23;20543;-86
2023/04/03 01:01:47;;;;;;;4.28;2.55;;;;;;;7.77;69.01;98744.66;6105439;23;20034;-86
2023/04/03 01:04:36;;;;;;;7.05;2.63;;;;;;;7.77;69.12;98764.22;6081010;23;20444;-86
2023/04/03 01:07:16;;;;;;;3.50;2.45;;;;;;;7.72;69.04;98758.03;6129792;23;19989;-86
2023/04/03 01:09:42;;;;;;;4.65;2.40;;;;;;;7.68;69.21;98765.81;6105359;23;20034;-85
2023/04/03 01:12:21;;;;;;;3.92;2.45;;;;;;;7.68;69.46;98769.28;6104687;23;20377;-86
2023/04/03 01:14:48;;;;;;;3.38;2.30;;;;;;;7.61;69.23;98766.03;6104558;23;20009;-86
2023/04/03 01:17:35;;;;;;;4.00;2.47;;;;;;;7.73;69.23;98773.84;6080576;23;20006;-86
2023/04/03 01:20:31;;;;;;;6.43;2.28;;;;;;;7.85;68.76;98777.09;6129810;23;20010;-86
2023/04/03 01:23:07;;;;;;;6.20;2.47;;;;;;;7.94;68.79;98773.88;6128252;23;19998;-87
2023/04/03 01:25:33;;;;;;;4.38;2.35;;;;;;;7.97;68.53;98768.81;6153585;23;20006;-86
2023/04/03 01:27:58;;;;;;;3.33;2.30;;;;;;;7.90;68.62;98766.38;6080948;23;20001;-85
2023/04/03 01:30:32;;;;;;;2.88;2.13;;;;;;;7.97;68.83;98776.84;6104828;23;20009;-85
2023/04/03 01:32:57;;;;;;;3.78;2.45;;;;;;;8.03;68.85;98791.03;6104801;23;20018;-86
2023/04/03 01:35:23;;;;;;;5.88;2.50;;;;;;;8.07;68.49;98792.94;6105166;23;20002;-87
2023/04/03 01:37:48;;;;;;;3.65;2.20;;;;;;;7.92;68.43;98778.72;6128121;23;20013;-86
2023/04/03 01:40:14;;;;;;;3.67;2.38;;;;;;;7.98;67.97;98791.84;6105357;23;20469;-85
2023/04/03 01:42:39;;;;;;;3.83;2.30;;;;;;;7.76;68.75;98773.34;6105284;23;20001;-84
2023/04/03 01:45:05;;;;;;;4.10;2.47;;;;;;;7.67;68.61;98781.06;6080792;23;20010;-86
2023/04/03 01:47:30;;;;;;;4.53;2.50;;;;;;;7.57;69.25;98781.03;6079489;23;20040;-86
2023/04/03 01:49:56;;;;;;;4.43;2.35;;;;;;;7.44;69.76;98776.97;6079593;23;20005;-86
2023/04/03 01:52:21;;;;;;;4.55;2.38;;;;;;;7.34;69.64;98774.25;6104499;23;20009;-86
2023/04/03 01:54:47;;;;;;;4.70;2.67;;;;;;;7.29;69.96;98783.06;6079705;23;20013;-86
2023/04/03 01:57:14;;;;;;;3.83;2.58;;;;;;;7.27;69.86;98792.44;6103990;23;20002;-85
2023/04/03 01:59:40;;;;;;;5.55;2.95;;;;;;;7.12;70.18;98787.81;6080259;23;19998;-86
2023/04/03 02:02:05;;;;;;;4.78;2.40;;;;;;;7.03;70.29;98786.69;6103512;23;20002;-86
2023/04/03 02:04:31;;;;;;;4.22;2.05;;;;;;;7.16;70.51;98807.66;6105356;23;20006;-86
2023/04/03 02:06:56;;;;;;;3.65;2.50;;;;;;;7.00;70.67;98798.72;6104425;23;20064;-85
2023/04/03 02:09:22;;;;;;;3.97;2.50;;;;;;;6.89;70.87;98786.38;6104533;23;20008;-86
2023/04/03 02:11:47;;;;;;;8.45;2.50;;;;;;;6.95;70.58;98795.22;6078930;23;19997;-86
2023/04/03 02:14:13;;;;;;;3.30;2.17;;;;;;;7.06;70.37;98789.66;6104024;23;20002;-86
2023/04/03 02:16:38;;;;;;;5.13;2.58;;;;;;;7.16;70.41;98799.63;6103978;23;19998;-86
2023/04/03 02:19:04;;;;;;;4.35;2.75;;;;;;;7.02;70.17;98788.56;6103888;23;20129;-86
2023/04/03 02:21:29;;;;;;;6.20;2.10;;;;;;;6.99;70.54;98796.31;6102796;23;20053;-86
2023/04/03 02:23:55;;;;;;;5.00;2.60;;;;;;;6.91;71.12;98781.56;6105517;23;20080;-86
2023/04/03 02:26:20;;;;;;;3.90;2.50;;;;;;;6.88;71.25;98774.81;6103855;23;20002;-85
2023/04/03 02:28:46;;;;;;;4.07;2.63;;;;;;;6.89;71.41;98786.38;6103626;23;20006;-86
2023/04/03 02:31:12;;;;;;;6.15;2.40;;;;;;;6.78;70.86;98773.97;6103941;23;20076;-86
2023/04/03 02:33:37;;;;;;;3.65;2.35;;;;;;;6.81;71.19;98782.28;6102772;23;20440;-86
2023/04/03 02:36:05;;;;;;;3.65;2.13;;;;;;;6.75;70.77;98786.00;6104202;23;20400;-86
2023/04/03 02:38:30;;;;;;;3.40;2.20;;;;;;;6.68;70.94;98791.56;6103902;23;20013;-86
2023/04/03 02:41:07;;;;;;;4.32;2.35;;;;;;;6.58;71.25;98782.66;6080145;23;19990;-86
2023/04/03 02:43:32;;;;;;;2.75;2.10;;;;;;;6.55;71.66;98783.97;6104612;23;20012;-86
2023/04/03 02:45:57;;;;;;;5.13;2.10;;;;;;;6.41;72.14;98788.16;6078907;23;20030;-86
2023/04/03 02:48:23;;;;;;;3.00;1.90;;;;;;;6.41;71.95;98785.47;6103967;23;20008;-85
2023/04/03 02:50:49;;;;;;;4.43;2.33;;;;;;;6.48;71.36;98784.19;6104140;23;20005;-86
2023/04/03 02:53:15;;;;;;;2.90;2.13;;;;;;;6.53;71.28;98785.31;6103568;23;20021;-85
2023/04/03 02:55:41;;;;;;;3.67;2.05;;;;;;;6.55;71.45;98799.22;6079228;23;20033;-85
2023/04/03 02:58:07;;;;;;;3.47;2.20;;;;;;;6.45;71.32;98789.25;6102602;23;20421;-85
2023/04/03 03:00:33;;;;;;;2.88;2.10;;;;;;;6.50;71.52;98794.66;6078657;23;19998;-86
2023/04/03 03:02:58;;;;;;;4.18;2.22;;;;;;;6.53;71.72;98796.00;6104749;23;20002;-86
2023/04/03 03:05:24;;;;;;;4.10;2.22;;;;;;;6.68;71.43;98801.44;6103385;23;20006;-85
2023/04/03 03:07:50;;;;;;;8.45;2.83;;;;;;;6.78;70.90;98803.41;6103841;23;20002;-86
2023/04/03 03:10:15;;;;;;;3.70;2.17;;;;;;;6.82;70.82;98802.63;6102154;23;20001;-86
2023/04/03 03:12:41;;;;;;;4.70;3.88;;;;;;;6.79;71.11;98807.69;6102980;23;20008;-86
2023/04/03 03:15:07;;;;;;;3.95;2.83;;;;;;;6.83;70.92;98803.44;6103908;23;20002;-86
2023/04/03 03:17:32;;;;;;;4.05;2.60;;;;;;;6.85;71.23;98826.19;6103497;23;20002;-86
2023/04/03 03:19:58;;;;;;;3.83;2.25;;;;;;;6.85;70.73;98817.38;6103283;23;20006;-86
2023/04/03 03:22:23;;;;;;;4.32;2.35;;;;;;;6.88;70.73;98814.16;6103113;23;19998;-86
2023/04/03 03:24:49;;;;;;;8.27;2.85;;;;;;;6.83;70.92;98806.13;6079610;23;20009;-85
2023/04/03 03:27:20;;;;;;;4.22;2.67;;;;;;;6.90;71.07;98816.59;6109690;23;20005;-94
2023/04/03 03:29:53;;;;;;;6.57;2.67;;;;;;;7.01;70.51;98808.34;6144708;23;20013;-93
2023/04/03 03:32:24;;;;;;;6.38;2.97;;;;;;;6.96;70.59;98821.72;6172199;23;20018;-94
2023/04/03 03:34:52;;;;;;;5.72;2.65;;;;;;;6.89;70.84;98815.81;6149806;23;20037;-93
2023/04/03 03:37:17;;;;;;;3.10;2.28;;;;;;;6.63;70.64;98791.53;6101131;23;20010;-87
2023/04/03 03:39:43;;;;;;;6.40;2.38;;;;;;;6.62;71.30;98805.16;6112209;23;20002;-87
2023/04/03 03:42:08;;;;;;;4.90;2.80;;;;;;;6.50;70.57;98807.22;6104005;23;20068;-87
2023/04/03 03:44:36;;;;;;;5.32;2.65;;;;;;;6.47;71.35;98813.88;6107388;23;19998;-86
2023/04/03 03:47:05;;;;;;;7.57;3.05;;;;;;;6.34;70.85;98793.72;6146181;23;19998;-86
2023/04/03 03:49:31;;;;;;;7.45;2.80;;;;;;;6.52;71.00;98803.22;6141717;23;20010;-86
2023/04/03 03:51:56;;;;;;;3.60;2.88;;;;;;;6.37;70.65;98790.53;6108331;23;20003;-86
2023/04/03 03:54:22;;;;;;;9.05;2.95;;;;;;;6.44;70.85;98793.00;6081444;23;20014;-85
2023/04/03 03:56:47;;;;;;;6.57;3.25;;;;;;;6.36;71.08;98786.25;6101950;23;19998;-86
2023/04/03 03:59:13;;;;;;;8.98;4.15;;;;;;;6.33;71.02;98788.63;6103069;23;20009;-86
2023/04/03 04:01:39;;;;;;;7.63;3.40;;;;;;;6.38;71.68;98794.03;6103870;23;20029;-86
2023/04/03 04:04:04;;;;;;;8.80;3.80;;;;;;;6.24;71.24;98774.91;6104264;23;19998;-85
2023/04/03 04:06:30;;;;;;;62.83;9.45;;;;;;;6.27;71.44;98785.91;6101960;23;20009;-89
2023/04/03 04:08:55;;;;;;;8.70;3.20;;;;;;;6.24;71.15;98785.59;6101432;23;19998;-87
2023/04/03 04:11:21;;;;;;;6.10;3.90;;;;;;;6.23;71.11;98790.16;6078630;23;19998;-85
2023/04/03 04:13:47;;;;;;;6.03;3.10;;;;;;;6.07;71.13;98791.88;6102628;23;19998;-86
2023/04/03 04:16:12;;;;;;;5.43;3.53;;;;;;;6.09;71.32;98796.19;6102080;23;20002;-86
2023/04/03 04:18:38;;;;;;;6.57;3.55;;;;;;;5.93;71.35;98782.63;6102694;23;19986;-86
2023/04/03 04:21:03;;;;;;;6.85;4.03;;;;;;;5.95;71.52;98791.22;6102234;23;20009;-86
2023/04/03 04:23:29;;;;;;;5.85;3.72;;;;;;;5.96;71.52;98794.72;6101171;23;20006;-86
2023/04/03 04:25:54;;;;;;;5.32;3.65;;;;;;;6.10;71.44;98798.59;6103899;23;20001;-86
2023/04/03 04:28:20;;;;;;;7.70;3.50;;;;;;;6.06;71.39;98794.81;6080215;23;20008;-86
2023/04/03 04:30:47;;;;;;;5.38;4.07;;;;;;;6.16;71.02;98792.22;6128831;23;20001;-86
2023/04/03 04:33:19;;;;;;;10.38;5.00;;;;;;;6.21;70.75;98789.59;6081333;23;20040;-85
2023/04/03 04:35:47;;;;;;;18.95;8.52;;;;;;;6.20;71.36;98806.69;6107749;23;20005;-85
2023/04/03 04:38:12;;;;;;;12.27;4.90;;;;;;;6.31;71.54;98802.25;6105413;23;19998;-85
2023/04/03 04:40:38;;;;;;;19.15;5.15;;;;;;;6.46;70.80;98798.91;6104143;23;20436;-87
2023/04/03 04:43:03;;;;;;;17.40;4.85;;;;;;;6.64;70.42;98808.38;6105638;23;20001;-85
2023/04/03 04:45:29;;;;;;;10.35;4.63;;;;;;;6.67;70.35;98802.53;6106732;23;20002;-87
2023/04/03 04:47:57;;;;;;;6.20;4.15;;;;;;;6.81;69.73;98802.91;6105315;23;20009;-86
2023/04/03 04:50:23;;;;;;;12.98;5.22;;;;;;;6.99;69.36;98812.34;6082517;23;20053;-86
2023/04/03 04:52:48;;;;;;;12.65;5.38;;;;;;;7.01;69.33;98815.59;6104770;23;20002;-86
2023/04/03 04:55:17;;;;;;;14.90;7.22;;;;;;;7.08;69.09;98822.34;6082872;23;20028;-86
2023/04/03 04:57:43;;;;;;;10.80;4.75;;;;;;;7.04;69.22;98821.25;6085285;23;19998;-86
2023/04/03 05:00:12;;;;;;;10.77;4.35;;;;;;;7.10;69.27;98830.09;6083345;23;20054;-89
2023/04/03 05:02:38;;;;;;;8.32;4.78;;;;;;;7.23;68.87;98826.16;6087433;23;20036;-87
2023/04/03 05:05:04;;;;;;;9.18;4.22;;;;;;;7.41;68.06;98830.28;6104397;23;20001;-87
2023/04/03 05:07:29;;;;;;;18.20;6.07;;;;;;;7.45;67.70;98832.16;6103985;23;20002;-86
2023/04/03 05:09:55;;;;;;;14.82;5.10;;;;;;;7.57;67.71;98839.16;6105360;23;20033;-86
2023/04/03 05:12:20;;;;;;;9.07;4.78;;;;;;;7.67;67.89;98848.03;6106286;23;20002;-87
2023/04/03 05:14:46;;;;;;;17.75;5.00;;;;;;;7.87;67.14;98860.72;6106775;23;20041;-87
2023/04/03 05:17:11;;;;;;;10.10;4.57;;;;;;;8.01;65.89;98860.22;6108368;23;20340;-91
2023/04/03 05:20:44;;;;;;;6.63;3.58;;;;;;;8.18;64.98;98855.44;6082036;23;20353;-95
2023/04/03 05:23:09;;;;;;;7.05;4.60;;;;;;;8.41;64.09;98862.22;6061143;23;20007;-88
2023/04/03 05:25:40;;;;;;;6.70;3.65;;;;;;;8.41;64.17;98858.72;6073238;23;20003;-94
2023/04/03 05:31:30;;;;;;;7.25;2.30;;;;;;;8.66;62.07;98864.09;6084799;23;20128;-91
2023/04/03 05:33:58;;;;;;;5.38;2.10;;;;;;;8.75;61.58;98864.38;6116861;23;20022;-92
2023/04/03 05:36:27;;;;;;;4.25;2.88;;;;;;;8.72;61.93;98850.69;6117599;23;20013;-92
2023/04/03 05:38:56;;;;;;;5.00;3.10;;;;;;;8.94;60.96;98863.81;6143981;23;20009;-93
2023/04/03 05:45:05;;;;;;;8.18;4.10;;;;;;;8.90;61.44;98844.75;6153672;23;20104;-95
2023/04/03 05:47:32;;;;;;;10.25;3.30;;;;;;;9.13;61.12;98854.16;6119388;23;20005;-93
2023/04/03 05:50:00;;;;;;;3.63;1.98;;;;;;;9.33;60.36;98877.44;6123923;23;20104;-94
2023/04/03 05:52:43;;;;;;;36.10;15.88;;;;;;;9.35;61.17;98853.81;6122944;23;20009;-96
2023/04/03 05:55:12;;;;;;;34.78;17.45;;;;;;;9.23;60.96;98848.72;6143997;23;20009;-86
2023/04/03 05:57:37;;;;;;;9.60;5.43;;;;;;;9.17;61.54;98878.56;6110709;23;20005;-88
2023/04/03 06:00:06;;;;;;;7.43;2.92;;;;;;;9.24;61.31;98884.47;6117298;23;20002;-91
2023/04/03 06:02:51;;;;;;;17.42;13.40;;;;;;;9.36;60.70;98873.41;6088522;23;20001;-88
2023/04/03 06:05:17;;;;;;;13.25;7.50;;;;;;;9.65;60.32;98890.53;6137322;23;20002;-87
2023/04/03 06:07:43;;;;;;;12.40;6.38;;;;;;;9.51;61.22;98852.69;6142582;23;20116;-87
2023/04/03 06:10:11;;;;;;;7.60;3.75;;;;;;;9.59;60.60;98855.91;6113102;23;20463;-88
2023/04/03 06:12:36;;;;;;;4.93;3.20;;;;;;;9.74;60.56;98868.47;6089077;23;20084;-88
2023/04/03 06:15:03;;;;;;;12.82;4.50;;;;;;;10.01;59.86;98863.50;6088302;23;20032;-87
2023/04/03 06:17:29;;;;;;;16.05;8.18;;;;;;;10.01;59.96;98839.28;6135165;23;20001;-90
2023/04/03 06:19:55;;;;;;;10.05;6.15;;;;;;;10.11;59.85;98865.34;6134811;23;20416;-88
2023/04/03 06:22:21;;;;;;;6.65;3.40;;;;;;;10.04;59.21;98854.06;6083971;23;20008;-86
2023/04/03 06:24:46;;;;;;;4.72;3.10;;;;;;;10.30;58.07;98876.28;6084190;23;20424;-89
2023/04/03 06:27:14;;;;;;;4.53;2.50;;;;;;;10.35;57.77;98856.59;6089156;23;19985;-89
2023/04/03 06:29:45;;;;;;;4.55;2.78;;;;;;;10.39;57.27;98847.69;6092309;23;20002;-89
2023/04/03 06:32:17;;;;;;;6.13;3.38;;;;;;;10.79;56.43;98888.03;6149578;23;20009;-89
2023/04/03 06:34:46;;;;;;;8.13;4.30;;;;;;;10.84;56.07;98871.84;6119922;23;20008;-86
2023/04/03 06:37:17;;;;;;;16.08;8.77;;;;;;;10.86;56.13;98867.78;6151316;23;19998;-89
2023/04/03 06:39:45;;;;;;;5.97;4.18;;;;;;;11.07;56.25;98894.53;6147318;23;20009;-92
2023/04/03 06:42:15;;;;;;;7.53;3.20;;;;;;;10.82;56.60;98879.41;6101546;23;20358;-92
2023/04/03 06:45:00;;;;;;;3.13;2.60;;;;;;;11.22;55.93;98898.97;6125432;23;20021;-85
2023/04/03 06:47:26;;;;;;;7.50;2.35;;;;;;;11.61;54.30;98900.75;6106314;23;20005;-88
2023/04/03 06:49:52;;;;;;;3.88;2.65;;;;;;;11.77;53.61;98898.69;6145280;23;20001;-90
2023/04/03 06:52:17;;;;;;;8.35;3.00;;;;;;;11.93;53.42;98895.53;6143111;23;20016;-89
2023/04/03 06:54:43;;;;;;;5.93;2.63;;;;;;;11.88;53.25;98865.09;6117486;23;20021;-86
2023/04/03 06:57:11;;;;;;;7.97;3.00;;;;;;;12.25;52.41;98885.16;6115965;23;20064;-89
2023/04/03 06:59:36;;;;;;;5.40;3.08;;;;;;;12.41;50.84;98885.72;6113407;23;19998;-87
2023/04/03 07:02:05;;;;;;;4.90;2.70;;;;;;;12.54;50.91;98890.38;6096042;23;20010;-91
2023/04/03 07:04:31;;;;;;;7.22;3.92;;;;;;;12.62;50.81;98878.13;6142649;23;20005;-88
2023/04/03 07:06:57;;;;;;;10.30;3.92;;;;;;;12.78;50.52;98878.66;6142583;23;20008;-89
2023/04/03 07:09:22;;;;;;;9.93;4.60;;;;;;;12.90;49.88;98887.13;6121927;23;20349;-88
2023/04/03 07:12:34;;;;;;;8.68;4.95;;;;;;;13.03;50.32;98902.59;6120172;23;19994;-91
2023/04/03 07:16:05;;;;;;;7.25;4.28;;;;;;;13.26;50.39;98903.53;6016722;23;20008;-90
2023/04/03 07:18:33;;;;;;;11.32;5.63;;;;;;;13.42;50.07;98881.66;5926424;23;20009;-92
2023/04/03 07:20:59;;;;;;;5.05;4.18;;;;;;;13.69;47.82;98908.69;6005352;23;20008;-93
2023/04/03 07:23:29;;;;;;;7.07;4.15;;;;;;;13.84;47.68;98904.09;6003469;23;20008;-92
2023/04/03 07:25:55;;;;;;;9.38;5.28;;;;;;;13.82;48.06;98869.25;6094505;23;20006;-94
2023/04/03 07:28:22;;;;;;;10.32;5.13;;;;;;;13.99;48.58;98879.44;6114066;23;20020;-90
2023/04/03 07:31:00;;;;;;;11.07;5.18;;;;;;;14.22;48.89;98885.72;6113855;23;19997;-92
2023/04/03 07:33:26;;;;;;;7.68;4.90;;;;;;;14.31;48.61;98875.75;6115731;23;20005;-91
2023/04/03 07:36:01;;;;;;;6.82;4.97;;;;;;;14.60;47.35;98901.69;6172782;23;20001;-90
2023/04/03 07:38:27;;;;;;;6.32;4.32;;;;;;;14.64;46.45;98891.81;6169574;23;20016;-89
2023/04/03 07:40:55;;;;;;;7.72;4.30;;;;;;;14.85;46.21;98883.22;6100592;23;20009;-91
2023/04/03 07:43:21;;;;;;;7.88;4.53;;;;;;;14.94;46.09;98876.75;6099885;23;20002;-91
2023/04/03 07:45:49;;;;;;;10.55;4.38;;;;;;;15.26;45.36;98903.88;6116347;23;20052;-92
2023/04/03 07:48:15;;;;;;;6.85;3.83;;;;;;;15.26;44.83;98876.75;6115546;23;20016;-91
2023/04/03 07:50:41;;;;;;;8.48;3.50;;;;;;;15.39;44.46;98866.91;6092336;23;20005;-91
2023/04/03 07:53:07;;;;;;;4.45;3.10;;;;;;;15.63;44.83;98899.09;6114995;23;20012;-92
2023/04/03 07:56:14;;;;;;;3.95;2.50;;;;;;;15.41;45.32;98913.53;6117734;23;20101;-92
2023/04/03 07:58:42;;;;;;;8.48;3.35;;;;;;;15.48;44.73;98884.03;6136522;23;20001;-92
2023/04/03 08:01:08;;;;;;;4.63;3.15;;;;;;;15.65;44.84;98886.03;6111143;23;20009;-91
2023/04/03 08:03:35;;;;;;;6.60;2.80;;;;;;;15.95;44.08;98896.03;6088306;23;20001;-91
2023/04/03 08:06:29;;;;;;;3.20;2.25;;;;;;;15.95;42.93;98862.66;6150178;23;20001;-95
2023/04/03 08:14:18;;;;;;;2.75;1.95;;;;;;;16.20;42.94;98860.28;6168975;23;20025;-94
2023/04/03 08:16:52;;;;;;;4.47;2.20;;;;;;;16.25;42.05;98852.78;6121835;23;20041;-95
2023/04/03 08:23:16;;;;;;;3.00;1.88;;;;;;;16.18;42.03;98860.59;6124935;23;20013;-92
2023/04/03 08:25:47;;;;;;;3.65;1.80;;;;;;;16.11;42.57;98855.66;6117134;23;20017;-93
2023/04/03 08:28:17;;;;;;;2.53;1.52;;;;;;;16.20;42.49;98854.88;6117241;23;20005;-94
2023/04/03 08:31:03;;;;;;;2.40;1.40;;;;;;;16.03;43.03;98833.91;6070162;23;20001;-95
2023/04/03 08:33:37;;;;;;;3.38;2.25;;;;;;;16.02;43.93;98832.31;6123386;23;20009;-96
2023/04/03 08:36:18;;;;;;;3.95;2.38;;;;;;;16.21;42.69;98816.53;6168036;23;20001;-88
2023/04/03 08:38:47;;;;;;;4.18;1.50;;;;;;;16.47;42.42;98824.66;6119657;23;20010;-89
2023/04/03 08:41:15;;;;;;;7.35;2.78;;;;;;;16.51;43.02;98841.13;6114955;23;20005;-91
2023/04/03 08:44:25;;;;;;;5.38;2.70;;;;;;;16.33;43.02;98852.00;6165930;23;20065;-89
2023/04/03 08:47:31;;;;;;;3.47;2.10;;;;;;;16.64;42.11;98850.22;6116772;23;20029;-90
2023/04/03 08:50:05;;;;;;;3.15;1.60;;;;;;;16.72;42.03;98841.25;6141921;23;20028;-90
2023/04/03 08:52:34;;;;;;;3.28;2.13;;;;;;;16.83;42.66;98845.28;6142110;23;20032;-87
2023/04/03 08:55:17;;;;;;;5.30;2.00;;;;;;;16.70;42.18;98816.31;6165645;23;20001;-92
2023/04/03 08:57:48;;;;;;;2.83;1.85;;;;;;;16.81;41.63;98812.19;6115998;23;20408;-90
2023/04/03 09:00:20;;;;;;;4.65;3.40;;;;;;;16.77;41.79;98816.63;6091244;23;20006;-90
2023/04/03 09:03:16;;;;;;;2.40;1.65;;;;;;;16.96;41.52;98824.44;6115727;23;20032;-89
2023/04/03 09:05:48;;;;;;;2.78;1.50;;;;;;;17.25;40.49;98834.59;6121842;23;20001;-92
2023/04/03 09:08:25;;;;;;;2.65;1.60;;;;;;;17.11;40.54;98834.00;6091985;23;20060;-91
2023/04/03 09:11:11;;;;;;;5.43;3.20;;;;;;;16.91;41.42;98841.75;6137310;23;19998;-89
2023/04/03 09:14:02;;;;;;;3.40;1.30;;;;;;;17.02;40.66;98812.28;6131682;23;20078;-90
2023/04/03 09:16:51;;;;;;;4.10;1.42;;;;;;;16.81;41.09;98816.78;6119980;23;20006;-89
2023/04/03 09:19:41;;;;;;;2.75;1.35;;;;;;;17.22;40.68;98831.72;6148816;23;20040;-92
2023/04/03 09:22:27;;;;;;;2.65;1.73;;;;;;;17.02;40.91;98811.47;6169993;23;20033;-89
2023/04/03 09:25:08;;;;;;;5.43;2.63;;;;;;;17.24;41.08;98834.91;6119723;23;20013;-89
2023/04/03 09:27:48;;;;;;;4.05;1.30;;;;;;;17.20;40.22;98801.31;6173499;23;20032;-90
2023/04/03 09:30:25;;;;;;;1.65;1.30;;;;;;;17.11;39.98;98807.59;6124957;23;19998;-90
2023/04/03 09:32:52;;;;;;;3.95;2.05;;;;;;;17.00;41.26;98800.91;6117961;23;20016;-90
2023/04/03 09:35:24;;;;;;;2.65;1.77;;;;;;;16.92;41.90;98816.13;6118903;23;20084;-90
2023/04/03 09:37:56;;;;;;;5.25;2.08;;;;;;;17.17;41.46;98800.84;6097621;23;20096;-90
2023/04/03 09:44:35;;;;;;;3.90;2.50;;;;;;;17.41;41.55;98810.38;6075062;23;20050;-90
2023/04/03 09:47:39;;;;;;;2.83;1.65;;;;;;;17.60;41.17;98811.84;6055915;23;19999;-90
2023/04/03 09:50:35;;;;;;;5.18;1.70;;;;;;;17.86;40.61;98809.78;6135114;23;20094;-89
2023/04/03 09:53:57;;;;;;;4.13;2.25;;;;;;;17.75;41.23;98798.47;6150420;23;20005;-90
2023/04/03 09:56:41;;;;;;;3.40;1.70;;;;;;;17.81;41.04;98796.34;6164968;23;20005;-91
2023/04/03 09:59:52;;;;;;;1.80;1.42;;;;;;;18.11;39.44;98797.13;6111417;23;20008;-90
2023/04/03 10:02:21;;;;;;;4.13;1.88;;;;;;;18.16;40.57;98810.56;6110531;23;20082;-89
2023/04/03 10:04:46;;;;;;;2.47;1.75;;;;;;;17.94;39.85;98821.78;6086056;23;20029;-88
2023/04/03 10:07:29;;;;;;;2.08;1.50;;;;;;;17.95;39.17;98802.38;6059102;23;20002;-88
2023/04/03 10:10:01;;;;;;;6.30;2.10;;;;;;;18.13;39.42;98813.94;6059423;23;20013;-88
2023/04/03 10:12:26;;;;;;;3.22;2.33;;;;;;;18.09;39.45;98787.69;6057416;23;20016;-89
2023/04/03 10:15:34;;;;;;;2.30;1.40;;;;;;;18.20;39.10;98810.69;6081654;23;20065;-90
2023/04/03 10:18:07;;;;;;;1.75;1.20;;;;;;;18.30;38.94;98802.13;6012522;23;20017;-89
2023/04/03 10:20:49;;;;;;;3.45;1.90;;;;;;;18.29;39.26;98775.19;6059163;23;20006;-89
2023/04/03 10:23:20;;;;;;;2.10;1.30;;;;;;;18.51;39.07;98785.72;6089081;23;20005;-89
2023/04/03 10:25:54;;;;;;;1.95;1.20;;;;;;;18.75;38.42;98798.63;6109328;23;20006;-89
2023/04/03 10:28:54;;;;;;;27.85;18.08;;;;;;;18.69;37.91;98794.50;6137457;23;20061;-88
2023/04/03 10:32:08;;;;;;;2.78;1.50;;;;;;;18.66;38.01;98789.75;6100686;23;20033;-90
2023/04/03 10:35:28;;;;;;;4.25;1.40;;;;;;;18.83;37.85;98783.34;5991541;24;20008;-90
2023/04/03 10:38:42;;;;;;;1.80;1.40;;;;;;;18.91;36.93;98785.16;5974048;24;20008;-90
2023/04/03 10:42:02;;;;;;;;;;;;;;;;;;;;;
2023/04/03 10:44:45;;;;;;;2.30;1.70;;;;;;;18.74;37.45;98769.78;5987171;24;20031;-91
2023/04/03 10:47:46;;;;;;;7.03;5.05;;;;;;;19.05;37.80;98767.66;6106811;23;20019;-92
2023/04/03 10:50:52;;;;;;;1.70;1.30;;;;;;;18.96;36.31;98775.97;6031830;23;20002;-92
2023/04/03 10:54:12;;;;;;;;;;;;;;;;;;;;;
2023/04/03 10:56:58;;;;;;;2.20;1.38;;;;;;;18.89;36.62;98762.09;6108037;23;20030;-93
2023/04/03 11:00:04;;;;;;;1.70;1.05;;;;;;;18.63;36.98;98756.88;6081648;23;20010;-95
2023/04/03 11:03:09;;;;;;;4.18;1.10;;;;;;;18.41;36.80;98728.91;6085752;23;20009;-94
2023/04/03 11:12:06;;;;;;;2.20;1.10;;;;;;;18.27;37.25;98696.47;6162412;23;20057;-89
2023/04/03 11:14:34;;;;;;;11.88;8.18;;;;;;;18.18;38.33;98706.69;6158234;23;20072;-88
2023/04/03 11:21:05;;;;;;;1.30;0.90;;;;;;;18.28;38.17;98728.06;6070192;23;20061;-91
2023/04/03 11:24:07;;;;;;;1.65;0.90;;;;;;;18.28;38.16;98719.91;6070081;23;20302;-90
2023/04/03 11:26:42;;;;;;;3.72;1.70;;;;;;;18.17;38.50;98708.59;6055626;23;20006;-89
2023/04/03 11:29:36;;;;;;;1.70;1.02;;;;;;;18.35;38.25;98713.88;6053943;23;20022;-89
2023/04/03 11:32:30;;;;;;;2.00;1.20;;;;;;;18.21;38.21;98686.13;6033665;23;20029;-90
2023/04/03 11:42:24;;;;;;;2.90;1.80;;;;;;;17.77;38.76;98694.66;6110270;23;20021;-89
2023/04/03 11:44:54;;;;;;;3.38;1.50;;;;;;;17.64;38.87;98703.88;6084585;23;20033;-96
2023/04/03 11:47:58;;;;;;;1.95;1.25;;;;;;;18.02;37.88;98724.78;6077749;23;20030;-96
2023/04/03 11:50:48;;;;;;;1.50;0.90;;;;;;;17.96;37.38;98714.06;6171913;23;20413;-96
2023/04/03 11:53:49;;;;;;;;;;;;;;;;;;;;;
2023/04/03 11:56:30;;;;;;;7.50;1.75;;;;;;;17.70;36.01;98689.75;6076077;23;19998;-96
2023/04/03 11:59:07;;;;;;;1.80;1.20;;;;;;;17.93;36.22;98725.66;6123932;23;20008;-94
2023/04/03 12:05:31;;;;;;;3.50;1.05;;;;;;;17.78;36.90;98718.84;6172953;23;20501;-95
2023/04/03 12:08:50;;;;;;;3.33;1.48;;;;;;;17.27;37.61;98685.41;6146679;23;20009;-94
2023/04/03 12:11:18;;;;;;;1.75;1.00;;;;;;;17.50;38.15;98721.28;6147275;23;20024;-96
2023/04/03 12:13:59;;;;;;;6.70;4.25;;;;;;;17.41;38.49;98712.38;6145836;23;20381;-95
2023/04/03 12:17:29;;;;;;;2.33;1.17;;;;;;;17.22;39.21;98682.88;6150113;23;20008;-95
2023/04/03 12:20:16;;;;;;;1.55;1.05;;;;;;;17.05;39.94;98672.09;6008567;23;20018;-96
2023/04/03 12:23:15;;;;;;;7.47;1.63;;;;;;;17.28;39.87;98686.22;5995084;23;20016;-90
2023/04/03 12:25:54;;;;;;;2.60;1.25;;;;;;;17.41;39.99;98679.72;6103733;23;20028;-95
2023/04/03 12:28:30;;;;;;;3.90;0.93;;;;;;;17.65;40.53;98686.44;6142531;23;20037;-96
2023/04/03 12:31:09;;;;;;;1.30;0.82;;;;;;;17.52;39.45;98671.97;6140885;23;19993;-95
2023/04/03 12:33:57;;;;;;;1.33;0.90;;;;;;;17.49;40.71;98689.75;6116919;23;20065;-96
2023/04/03 12:37:18;;;;;;;2.75;1.70;;;;;;;17.68;40.39;98708.34;6121091;23;20023;-96
2023/04/03 12:40:21;;;;;;;3.90;1.45;;;;;;;17.75;40.75;98703.16;6147594;23;20009;-96
2023/04/03 12:43:17;;;;;;;2.05;1.50;;;;;;;17.83;40.66;98696.09;6143463;23;20051;-93
2023/04/03 12:46:26;;;;;;;2.28;1.10;;;;;;;17.98;40.19;98711.03;6142172;23;20088;-94
2023/04/03 12:49:33;;;;;;;1.33;0.93;;;;;;;18.09;39.56;98711.41;6166287;23;19986;-93
2023/04/03 12:53:02;;;;;;;3.72;1.80;;;;;;;18.14;39.43;98684.75;6150929;23;20065;-95
2023/04/03 12:55:28;;;;;;;1.90;1.05;;;;;;;18.16;38.67;98695.31;6060691;23;20065;-96
2023/04/03 13:04:47;;;;;;;5.90;2.40;;;;;;;17.34;39.93;98666.63;6214877;22;20031;-96